Time;durP1;ratioP1;P1;durP2;ratioP2;P2;SDS_P1;SDS_P2;PMS_P1;PMS_P2;Temp;Humidity;BMP_temperature;BMP_pressure;BME280_temperature;BME280_humidity;BME280_pressure;Samples;Min_cycle;Max_cycle;Signal;HPM_P1;HPM_P2
2022/11/24 00:00:29;;;;;;;7.45;1.95;;;9.80;99.90;;;;;;4973553;28;20268;-80
2022/11/24 00:02:55;;;;;;;17.17;3.13;;;9.80;99.90;;;;;;4973363;28;20170;-82
2022/11/24 00:05:21;;;;;;;9.63;1.90;;;9.80;99.90;;;;;;4973752;28;20170;-83
2022/11/24 00:07:47;;;;;;;10.73;2.40;;;9.80;99.90;;;;;;4973826;28;20163;-81
2022/11/24 00:10:12;;;;;;;14.93;2.92;;;9.80;99.90;;;;;;4973789;28;20542;-83
2022/11/24 00:12:38;;;;;;;13.70;2.58;;;9.90;99.90;;;;;;4973767;28;20313;-80
2022/11/24 00:15:04;;;;;;;12.60;2.97;;;10.00;99.90;;;;;;4973562;28;20189;-80
2022/11/24 00:17:31;;;;;;;19.67;3.15;;;9.90;99.90;;;;;;4973775;28;20177;-80
2022/11/24 00:19:56;;;;;;;11.32;1.98;;;10.00;99.90;;;;;;4977039;28;20268;-85
2022/11/24 00:22:22;;;;;;;20.40;3.17;;;9.90;99.90;;;;;;4977109;28;20216;-83
2022/11/24 00:24:47;;;;;;;14.60;2.40;;;9.90;99.90;;;;;;4959422;28;20170;-82
2022/11/24 00:27:13;;;;;;;22.25;3.28;;;9.90;99.90;;;;;;4959557;28;20201;-82
2022/11/24 00:29:38;;;;;;;20.48;2.75;;;9.90;99.90;;;;;;4976808;28;20186;-82
2022/11/24 00:32:05;;;;;;;14.25;2.47;;;10.00;99.90;;;;;;4977044;28;20539;-81
2022/11/24 00:34:31;;;;;;;19.58;2.67;;;10.00;99.90;;;;;;4959638;28;20527;-80
2022/11/24 00:36:57;;;;;;;13.95;3.30;;;10.00;99.90;;;;;;4977370;28;20158;-81
2022/11/24 00:39:23;;;;;;;24.58;3.20;;;10.00;99.90;;;;;;4976633;28;20201;-82
2022/11/24 00:41:48;;;;;;;11.13;2.88;;;10.00;99.90;;;;;;4976698;28;20212;-82
2022/11/24 00:44:14;;;;;;;12.15;2.40;;;10.00;99.90;;;;;;4976879;28;20206;-81
2022/11/24 00:46:40;;;;;;;24.55;3.00;;;10.00;99.90;;;;;;4960563;28;20170;-82
2022/11/24 00:49:05;;;;;;;11.48;2.08;;;10.00;99.90;;;;;;4959639;28;20871;-82
2022/11/24 00:51:31;;;;;;;12.65;2.45;;;10.00;99.90;;;;;;4976472;28;20627;-80
2022/11/24 00:53:58;;;;;;;14.02;3.22;;;9.90;99.90;;;;;;4976380;28;20217;-80
2022/11/24 00:56:25;;;;;;;13.43;3.70;;;9.90;99.90;;;;;;4958932;28;20534;-80
2022/11/24 00:58:52;;;;;;;14.80;3.88;;;10.00;99.90;;;;;;4976422;28;20178;-84
2022/11/24 01:01:20;;;;;;;20.83;3.38;;;10.10;99.90;;;;;;4976956;28;20204;-84
2022/11/24 01:03:46;;;;;;;14.88;2.38;;;10.10;99.90;;;;;;4976619;28;20162;-79
2022/11/24 01:06:20;;;;;;;25.02;3.88;;;10.20;99.90;;;;;;4958977;28;20233;-80
2022/11/24 01:08:46;;;;;;;19.08;3.15;;;10.10;99.90;;;;;;4976407;28;20591;-84
2022/11/24 01:11:21;;;;;;;13.13;2.90;;;10.20;99.90;;;;;;4976238;28;20206;-81
2022/11/24 01:13:52;;;;;;;20.60;2.95;;;10.20;99.90;;;;;;4975933;28;20229;-79
2022/11/24 01:16:19;;;;;;;8.25;2.08;;;10.20;99.90;;;;;;4958908;28;20169;-84
2022/11/24 01:18:45;;;;;;;14.68;2.90;;;10.30;99.90;;;;;;4976352;28;20207;-80
2022/11/24 01:21:11;;;;;;;24.35;3.65;;;10.30;99.90;;;;;;4976162;28;20526;-80
2022/11/24 01:23:37;;;;;;;20.40;3.45;;;10.20;99.90;;;;;;4976096;28;20174;-80
2022/11/24 01:26:07;;;;;;;17.65;3.50;;;10.00;99.90;;;;;;4976079;28;20717;-81
2022/11/24 01:28:33;;;;;;;20.48;3.75;;;10.20;99.90;;;;;;4975977;28;20233;-81
2022/11/24 01:31:00;;;;;;;17.25;3.47;;;10.30;99.90;;;;;;4975975;28;20569;-79
2022/11/24 01:33:26;;;;;;;16.73;3.50;;;10.20;99.90;;;;;;4975752;28;20216;-80
2022/11/24 01:35:52;;;;;;;8.05;2.70;;;10.20;99.90;;;;;;4975662;28;20170;-80
2022/11/24 01:38:17;;;;;;;28.50;4.63;;;10.10;99.90;;;;;;4975807;28;20174;-80
2022/11/24 01:40:43;;;;;;;18.45;3.13;;;10.10;99.90;;;;;;4975822;28;20198;-80
2022/11/24 01:43:21;;;;;;;18.02;2.88;;;10.10;99.90;;;;;;4975876;28;20193;-80
2022/11/24 01:45:47;;;;;;;12.85;2.90;;;10.20;99.90;;;;;;4975462;28;20162;-80
2022/11/24 01:48:39;;;;;;;18.52;3.63;;;10.30;99.90;;;;;;4958496;28;20177;-79
2022/11/24 01:51:10;;;;;;;7.95;2.72;;;10.50;99.90;;;;;;4975105;28;20189;-80
2022/11/24 01:53:38;;;;;;;17.65;3.63;;;10.60;99.90;;;;;;4975760;28;20205;-82
2022/11/24 01:56:05;;;;;;;19.67;3.30;;;10.60;99.90;;;;;;4958334;28;20174;-81
2022/11/24 01:58:33;;;;;;;15.65;3.03;;;10.50;99.90;;;;;;4958309;28;20201;-83
2022/11/24 02:00:58;;;;;;;23.70;3.20;;;10.40;99.90;;;;;;4958346;28;20524;-84
2022/11/24 02:03:28;;;;;;;21.60;3.47;;;10.50;99.90;;;;;;4958218;28;20172;-80
2022/11/24 02:05:59;;;;;;;25.33;3.17;;;10.50;99.90;;;;;;4975042;28;20178;-81
2022/11/24 02:08:47;;;;;;;21.77;3.05;;;10.60;99.90;;;;;;4974803;28;20290;-81
2022/11/24 02:11:13;;;;;;;13.23;3.60;;;10.50;99.90;;;;;;4975046;28;20546;-80
2022/11/24 02:13:41;;;;;;;22.40;3.63;;;10.50;99.90;;;;;;4974875;28;20201;-81
2022/11/24 02:16:09;;;;;;;13.60;3.08;;;10.40;99.90;;;;;;4975276;28;20162;-81
2022/11/24 02:18:37;;;;;;;16.45;2.75;;;10.30;99.90;;;;;;4957487;28;20170;-82
2022/11/24 02:21:03;;;;;;;19.98;3.42;;;10.30;99.90;;;;;;4975191;28;20228;-83
2022/11/24 02:23:52;;;;;;;15.57;3.70;;;10.30;99.90;;;;;;4975205;28;20193;-84
2022/11/24 02:26:24;;;;;;;19.35;3.28;;;10.40;99.90;;;;;;4955193;28;20531;-82
2022/11/24 02:28:50;;;;;;;22.52;3.17;;;10.40;99.90;;;;;;4974823;28;20232;-81
2022/11/24 02:31:16;;;;;;;21.63;3.78;;;10.50;99.90;;;;;;4957761;28;20182;-81
2022/11/24 02:33:41;;;;;;;12.77;2.65;;;10.50;99.90;;;;;;4974767;28;20216;-81
2022/11/24 02:36:07;;;;;;;23.17;3.47;;;10.50;99.90;;;;;;4957446;28;20165;-83
2022/11/24 02:38:34;;;;;;;13.52;2.88;;;10.50;99.90;;;;;;4957600;28;20182;-83
2022/11/24 02:41:05;;;;;;;24.25;5.22;;;10.60;99.90;;;;;;4974285;28;20166;-85
2022/11/24 02:43:36;;;;;;;19.60;3.05;;;10.40;99.90;;;;;;4974891;28;20170;-80
2022/11/24 02:46:02;;;;;;;21.92;2.88;;;10.30;99.90;;;;;;4974357;28;20170;-85
2022/11/24 02:48:28;;;;;;;35.70;3.63;;;10.30;99.90;;;;;;4957309;28;20166;-82
2022/11/24 02:50:53;;;;;;;25.75;3.97;;;10.30;99.90;;;;;;4974393;28;20198;-82
2022/11/24 02:53:19;;;;;;;10.75;2.83;;;10.30;99.90;;;;;;4974675;28;20256;-82
2022/11/24 02:55:44;;;;;;;15.05;2.85;;;10.40;99.90;;;;;;4974676;28;20201;-83
2022/11/24 02:58:10;;;;;;;17.73;2.53;;;10.30;99.90;;;;;;4974358;28;20185;-83
2022/11/24 03:00:36;;;;;;;6.68;2.22;;;10.20;99.90;;;;;;4974404;28;20185;-81
2022/11/24 03:03:02;;;;;;;14.85;3.20;;;10.20;99.90;;;;;;4956998;28;20174;-81
2022/11/24 03:05:27;;;;;;;23.88;3.70;;;10.20;99.90;;;;;;4956510;28;20177;-81
2022/11/24 03:07:53;;;;;;;14.68;2.78;;;10.20;99.90;;;;;;4974176;28;20174;-81
2022/11/24 03:10:19;;;;;;;32.35;3.60;;;10.10;99.90;;;;;;4956814;28;20693;-85
2022/11/24 03:12:44;;;;;;;17.67;3.13;;;10.20;99.90;;;;;;4956407;28;20565;-82
2022/11/24 03:15:10;;;;;;;21.30;3.42;;;10.10;99.90;;;;;;4974324;28;20245;-80
2022/11/24 03:17:35;;;;;;;16.60;3.20;;;10.00;99.90;;;;;;4973952;28;20170;-80
2022/11/24 03:20:01;;;;;;;32.83;3.60;;;10.00;99.90;;;;;;4956544;28;20681;-80
2022/11/24 03:22:27;;;;;;;12.48;2.85;;;10.20;99.90;;;;;;4973996;28;20173;-83
2022/11/24 03:24:52;;;;;;;21.42;3.72;;;10.20;99.90;;;;;;4956317;28;20256;-82
2022/11/24 03:27:18;;;;;;;13.07;2.17;;;10.10;99.90;;;;;;4972542;28;20174;-80
2022/11/24 03:29:44;;;;;;;13.07;3.00;;;10.10;99.90;;;;;;4956370;28;20546;-83
2022/11/24 03:32:09;;;;;;;17.92;3.50;;;10.30;99.90;;;;;;4973690;28;20655;-84
2022/11/24 03:34:35;;;;;;;25.10;3.28;;;10.30;99.90;;;;;;4973939;28;20162;-80
2022/11/24 03:37:00;;;;;;;16.02;2.75;;;10.30;99.90;;;;;;4973608;28;20177;-83
2022/11/24 03:39:26;;;;;;;9.60;2.47;;;10.30;99.90;;;;;;4956799;28;20200;-81
2022/11/24 03:41:51;;;;;;;18.70;2.40;;;10.40;99.90;;;;;;4973857;28;20585;-80
2022/11/24 03:44:17;;;;;;;6.13;1.65;;;10.40;99.90;;;;;;4973538;28;20202;-81
2022/11/24 03:46:43;;;;;;;10.82;2.90;;;10.40;99.90;;;;;;4973456;28;20170;-80
2022/11/24 03:49:09;;;;;;;8.20;1.95;;;10.40;99.90;;;;;;4973780;28;20190;-80
2022/11/24 03:51:35;;;;;;;4.90;1.52;;;10.50;99.90;;;;;;4956527;28;20170;-80
2022/11/24 03:54:01;;;;;;;4.35;1.63;;;10.50;99.90;;;;;;4960089;28;20718;-80
2022/11/24 03:56:27;;;;;;;5.68;1.42;;;10.40;99.90;;;;;;4959984;28;20289;-84
2022/11/24 03:58:52;;;;;;;11.20;1.33;;;10.40;99.90;;;;;;4977647;28;20295;-82
2022/11/24 04:01:18;;;;;;;3.78;0.90;;;10.30;99.90;;;;;;4976966;28;20178;-79
2022/11/24 04:03:44;;;;;;;5.30;1.15;;;10.20;99.90;;;;;;4977039;28;20209;-79
2022/11/24 04:06:09;;;;;;;7.22;1.38;;;10.10;99.90;;;;;;4959672;28;20237;-81
2022/11/24 04:08:35;;;;;;;3.58;0.93;;;10.00;99.90;;;;;;4977053;28;20169;-82
2022/11/24 04:11:01;;;;;;;3.95;0.98;;;10.00;99.90;;;;;;4977474;28;20174;-80
2022/11/24 04:13:27;;;;;;;4.95;0.98;;;9.90;99.90;;;;;;4977150;28;20210;-84
2022/11/24 04:15:53;;;;;;;8.68;1.38;;;9.90;99.90;;;;;;4977145;28;20649;-83
2022/11/24 04:18:19;;;;;;;2.70;1.00;;;9.80;99.90;;;;;;4977483;28;20170;-81
2022/11/24 04:20:47;;;;;;;6.93;1.52;;;9.80;99.90;;;;;;4959803;28;20280;-81
2022/11/24 04:23:13;;;;;;;5.32;1.02;;;9.70;99.90;;;;;;4977241;28;20162;-81
2022/11/24 04:25:40;;;;;;;4.60;0.95;;;9.70;99.90;;;;;;4959465;28;20178;-80
2022/11/24 04:28:05;;;;;;;4.32;1.10;;;9.60;99.90;;;;;;4959646;28;20166;-82
2022/11/24 04:30:31;;;;;;;2.25;0.82;;;9.70;99.90;;;;;;4977386;28;20212;-82
2022/11/24 04:32:57;;;;;;;8.52;1.25;;;9.70;99.90;;;;;;4977206;28;20217;-81
2022/11/24 04:35:23;;;;;;;4.55;1.05;;;9.60;99.90;;;;;;4959638;28;20166;-81
2022/11/24 04:37:48;;;;;;;2.90;0.77;;;9.50;99.90;;;;;;4977201;28;20232;-81
2022/11/24 04:40:15;;;;;;;3.47;0.75;;;9.60;99.90;;;;;;4976683;28;20197;-79
2022/11/24 04:42:40;;;;;;;4.70;1.15;;;9.60;99.90;;;;;;4976990;28;20170;-80
2022/11/24 04:45:06;;;;;;;7.43;0.90;;;9.50;99.90;;;;;;4976966;28;20570;-83
2022/11/24 04:47:32;;;;;;;6.47;0.75;;;9.60;99.90;;;;;;4959838;28;20508;-82
2022/11/24 04:49:58;;;;;;;7.18;1.17;;;9.50;99.90;;;;;;4976727;28;20192;-81
2022/11/24 04:52:24;;;;;;;7.07;1.48;;;9.60;99.90;;;;;;4976546;28;20242;-79
2022/11/24 04:54:50;;;;;;;2.95;0.52;;;9.60;99.90;;;;;;4959168;28;20181;-83
2022/11/24 04:57:21;;;;;;;1.88;0.68;;;9.50;99.90;;;;;;4976479;28;20189;-82
2022/11/24 04:59:48;;;;;;;2.42;0.55;;;9.40;99.90;;;;;;4976996;28;20194;-83
2022/11/24 05:02:14;;;;;;;3.70;0.85;;;9.30;99.90;;;;;;4959312;28;20180;-80
2022/11/24 05:04:39;;;;;;;2.10;0.55;;;9.30;99.90;;;;;;4975596;28;20166;-80
2022/11/24 05:07:06;;;;;;;3.22;0.63;;;9.20;99.90;;;;;;4976514;28;20182;-81
2022/11/24 05:09:32;;;;;;;2.70;0.90;;;9.20;99.90;;;;;;4976526;28;20189;-80
2022/11/24 05:11:57;;;;;;;3.90;0.93;;;9.20;99.90;;;;;;4975939;28;20178;-79
2022/11/24 05:14:23;;;;;;;5.13;1.02;;;9.20;99.90;;;;;;4959210;28;20178;-82
2022/11/24 05:16:48;;;;;;;0.60;0.52;;;9.20;99.90;;;;;;4958408;28;20174;-81
2022/11/24 05:19:14;;;;;;;3.47;1.13;;;9.10;99.90;;;;;;4974721;28;20288;-80
2022/11/24 05:21:40;;;;;;;3.10;1.00;;;9.10;99.90;;;;;;4958496;28;20230;-80
2022/11/24 05:24:06;;;;;;;3.25;1.70;;;9.10;99.90;;;;;;4976192;28;20262;-81
2022/11/24 05:26:32;;;;;;;1.63;0.80;;;9.10;99.90;;;;;;4976169;28;20189;-79
2022/11/24 05:28:57;;;;;;;4.10;0.98;;;9.10;99.90;;;;;;4958676;28;20530;-82
2022/11/24 05:31:23;;;;;;;6.60;1.10;;;9.10;99.90;;;;;;4975635;28;20264;-80
2022/11/24 05:33:49;;;;;;;4.80;0.85;;;9.10;99.90;;;;;;4975959;28;20228;-79
2022/11/24 05:38:59;;;;;;;1.95;0.73;;;9.10;99.90;;;;;;4976437;28;20221;-79
2022/11/24 05:41:25;;;;;;;7.03;0.80;;;9.00;99.90;;;;;;4975801;28;20619;-81
2022/11/24 05:43:50;;;;;;;4.95;1.02;;;9.00;99.90;;;;;;4975765;28;20250;-84
2022/11/24 05:46:16;;;;;;;4.57;1.25;;;9.10;99.90;;;;;;4976104;28;20608;-80
2022/11/24 05:48:42;;;;;;;6.32;1.20;;;9.10;99.90;;;;;;4975848;28;20213;-81
2022/11/24 05:51:07;;;;;;;6.35;1.10;;;9.20;99.90;;;;;;4975787;28;20228;-81
2022/11/24 05:53:33;;;;;;;8.20;1.42;;;9.30;99.90;;;;;;4975497;28;20682;-78
2022/11/24 05:56:02;;;;;;;3.33;0.80;;;9.20;99.90;;;;;;4975505;28;20170;-78
2022/11/24 05:58:28;;;;;;;9.75;1.50;;;9.20;99.90;;;;;;4975675;28;20182;-80
2022/11/24 06:00:53;;;;;;;1.73;0.80;;;9.20;99.90;;;;;;4957975;28;20346;-79
2022/11/24 06:03:19;;;;;;;6.28;1.50;;;9.10;99.90;;;;;;4975775;28;20170;-83
2022/11/24 06:05:46;;;;;;;15.48;2.22;;;9.10;99.90;;;;;;4975133;28;20185;-81
2022/11/24 06:08:12;;;;;;;8.55;1.48;;;9.10;99.90;;;;;;4975276;28;20166;-80
2022/11/24 06:10:37;;;;;;;7.55;2.10;;;9.00;99.90;;;;;;4975410;28;20273;-83
2022/11/24 06:13:05;;;;;;;8.45;1.85;;;9.10;99.90;;;;;;4975224;28;20257;-79
2022/11/24 06:15:31;;;;;;;13.52;1.58;;;9.10;99.90;;;;;;4974417;28;20173;-80
2022/11/24 06:17:57;;;;;;;15.63;2.15;;;9.00;99.90;;;;;;4975130;28;20635;-80
2022/11/24 06:20:23;;;;;;;9.95;1.55;;;8.80;99.90;;;;;;4957667;28;20277;-79
2022/11/24 06:22:49;;;;;;;5.80;1.88;;;8.80;99.90;;;;;;4957640;28;20521;-80
2022/11/24 06:25:15;;;;;;;12.57;1.98;;;9.00;99.90;;;;;;4957594;28;20228;-80
2022/11/24 06:27:40;;;;;;;11.30;1.92;;;9.00;99.90;;;;;;4975305;28;20189;-82
2022/11/24 06:30:06;;;;;;;11.23;2.33;;;8.80;99.90;;;;;;4974974;28;20189;-79
2022/11/24 06:32:32;;;;;;;6.20;1.95;;;8.70;99.90;;;;;;4974615;28;20182;-79
2022/11/24 06:34:58;;;;;;;13.07;2.47;;;8.70;99.90;;;;;;4975035;28;20178;-82
2022/11/24 06:37:23;;;;;;;15.60;1.95;;;8.80;99.90;;;;;;4975243;28;20170;-80
2022/11/24 06:39:49;;;;;;;7.03;1.92;;;8.70;99.90;;;;;;4975015;28;20710;-81
2022/11/24 06:42:17;;;;;;;11.10;2.30;;;8.70;99.90;;;;;;4974918;28;20178;-80
2022/11/24 06:44:46;;;;;;;10.38;2.55;;;8.70;99.90;;;;;;4974973;28;20170;-84
2022/11/24 06:47:12;;;;;;;16.15;1.90;;;8.70;99.90;;;;;;4975562;28;20174;-80
2022/11/24 06:49:38;;;;;;;4.93;1.67;;;8.80;99.90;;;;;;4975269;28;20189;-82
2022/11/24 06:52:03;;;;;;;10.77;1.65;;;8.90;99.90;;;;;;4982677;28;20185;-79
2022/11/24 06:54:29;;;;;;;26.10;2.42;;;8.90;99.90;;;;;;4982557;28;20532;-80
2022/11/24 06:56:56;;;;;;;9.52;2.70;;;8.70;99.90;;;;;;4976369;28;20257;-80
2022/11/24 06:59:21;;;;;;;14.27;2.35;;;8.80;99.90;;;;;;4957785;28;20203;-80
2022/11/24 07:01:47;;;;;;;4.93;1.52;;;8.70;99.90;;;;;;4977495;28;20170;-80
2022/11/24 07:04:13;;;;;;;17.38;2.10;;;8.70;99.90;;;;;;4957950;28;20256;-80
2022/11/24 07:06:40;;;;;;;6.13;1.63;;;8.60;99.90;;;;;;4979996;28;20174;-81
2022/11/24 07:09:10;;;;;;;17.52;2.28;;;8.60;99.90;;;;;;4985557;28;20285;-79
2022/11/24 07:11:36;;;;;;;5.63;1.85;;;8.60;99.90;;;;;;4985531;28;20192;-79
2022/11/24 07:14:02;;;;;;;12.63;2.58;;;8.60;99.90;;;;;;4984130;28;20213;-79
2022/11/24 07:16:28;;;;;;;15.27;2.10;;;8.50;99.90;;;;;;4983975;28;20166;-79
2022/11/24 07:18:54;;;;;;;5.38;1.60;;;8.60;99.90;;;;;;4984621;28;20174;-79
2022/11/24 07:21:22;;;;;;;13.98;2.33;;;8.40;99.90;;;;;;4970342;28;20215;-80
2022/11/24 07:23:51;;;;;;;8.70;1.90;;;8.50;99.90;;;;;;4978490;28;20184;-82
2022/11/24 07:26:18;;;;;;;11.50;1.70;;;8.60;99.90;;;;;;4976333;28;20162;-82
2022/11/24 07:28:44;;;;;;;8.98;2.33;;;8.60;99.90;;;;;;4978939;28;20239;-82
2022/11/24 07:31:11;;;;;;;8.75;2.45;;;8.60;99.90;;;;;;4961367;28;20617;-81
2022/11/24 07:33:38;;;;;;;5.65;1.52;;;8.50;99.90;;;;;;4978921;28;20263;-85
2022/11/24 07:36:05;;;;;;;10.02;1.67;;;8.60;99.90;;;;;;4979532;28;20177;-84
2022/11/24 07:38:32;;;;;;;10.02;1.98;;;8.60;99.90;;;;;;4980492;28;20292;-80
2022/11/24 07:41:08;;;;;;;9.02;2.10;;;8.80;99.90;;;;;;4961341;28;20190;-81
2022/11/24 07:43:36;;;;;;;5.88;1.65;;;8.80;99.90;;;;;;4964355;28;20177;-81
2022/11/24 07:46:02;;;;;;;10.25;2.08;;;8.70;99.90;;;;;;4983116;28;20180;-85
2022/11/24 07:48:28;;;;;;;7.60;1.63;;;8.70;99.90;;;;;;4975759;28;20173;-83
2022/11/24 07:50:54;;;;;;;14.20;1.75;;;8.70;99.90;;;;;;4959833;28;20190;-82
2022/11/24 07:53:19;;;;;;;6.53;1.38;;;8.70;99.90;;;;;;4978095;28;20263;-79
2022/11/24 07:55:55;;;;;;;6.15;1.48;;;8.60;99.90;;;;;;4975421;28;20184;-80
2022/11/24 07:58:21;;;;;;;6.32;1.90;;;8.70;99.90;;;;;;4958229;28;20625;-79
2022/11/24 08:00:47;;;;;;;9.27;1.27;;;8.70;99.90;;;;;;4956407;28;20309;-80
2022/11/24 08:03:13;;;;;;;11.82;1.75;;;8.70;99.90;;;;;;4973855;28;20642;-81
2022/11/24 08:05:38;;;;;;;11.65;2.03;;;8.80;99.90;;;;;;4973685;28;20177;-81
2022/11/24 08:08:04;;;;;;;9.85;1.80;;;8.80;99.90;;;;;;4974182;28;20181;-80
2022/11/24 08:10:29;;;;;;;12.60;1.75;;;8.80;99.90;;;;;;4956138;28;20182;-83
2022/11/24 08:12:59;;;;;;;4.63;1.40;;;8.90;99.90;;;;;;4973646;28;20225;-81
2022/11/24 08:15:25;;;;;;;9.07;1.70;;;8.90;99.90;;;;;;4957061;28;20170;-80
2022/11/24 08:17:50;;;;;;;9.98;1.38;;;9.00;99.90;;;;;;4974081;28;20181;-80
2022/11/24 08:20:16;;;;;;;6.15;2.00;;;9.00;99.90;;;;;;4973708;28;20256;-82
2022/11/24 08:22:42;;;;;;;14.88;1.80;;;8.90;99.90;;;;;;4973873;28;20169;-80
2022/11/24 08:25:08;;;;;;;11.50;1.85;;;9.00;99.90;;;;;;4973487;28;20174;-82
2022/11/24 08:27:33;;;;;;;7.28;1.73;;;9.00;99.90;;;;;;4973247;28;20166;-80
2022/11/24 08:29:59;;;;;;;4.75;1.58;;;9.00;99.90;;;;;;4973374;28;20190;-80
2022/11/24 08:32:25;;;;;;;3.90;1.38;;;8.90;99.90;;;;;;4973436;28;20341;-81
2022/11/24 08:34:50;;;;;;;14.18;2.17;;;9.00;99.90;;;;;;4973394;28;20178;-79
2022/11/24 08:37:16;;;;;;;6.68;1.70;;;9.10;99.90;;;;;;4973010;28;20162;-82
2022/11/24 08:39:42;;;;;;;18.13;2.13;;;9.10;99.90;;;;;;4975683;28;20669;-86
2022/11/24 08:42:07;;;;;;;7.05;1.98;;;9.20;99.90;;;;;;4977126;28;20170;-83
2022/11/24 08:44:33;;;;;;;6.63;1.80;;;9.20;99.90;;;;;;4959685;28;20264;-82
2022/11/24 08:46:58;;;;;;;8.77;2.03;;;9.20;99.90;;;;;;4959179;28;20170;-80
2022/11/24 08:49:24;;;;;;;15.27;1.95;;;9.30;99.90;;;;;;4959406;28;20193;-81
2022/11/24 08:51:50;;;;;;;7.00;2.15;;;9.30;99.90;;;;;;4976818;28;20534;-83
2022/11/24 08:54:17;;;;;;;5.15;1.45;;;9.30;99.90;;;;;;4976584;28;20228;-81
2022/11/24 08:56:44;;;;;;;10.23;2.00;;;9.30;99.90;;;;;;4955805;29;20202;-84
2022/11/24 08:59:13;;;;;;;4.15;1.52;;;9.40;99.90;;;;;;4957361;28;20197;-83
2022/11/24 09:01:39;;;;;;;10.45;1.65;;;9.50;99.90;;;;;;4958229;29;20182;-83
2022/11/24 09:04:04;;;;;;;13.63;1.67;;;9.40;99.90;;;;;;4958905;29;20167;-83
2022/11/24 09:06:30;;;;;;;12.20;2.22;;;9.40;99.90;;;;;;4957815;29;20177;-85
2022/11/24 09:08:56;;;;;;;6.45;1.52;;;9.60;99.90;;;;;;4957897;28;20236;-82
2022/11/24 09:11:24;;;;;;;18.35;1.60;;;9.60;99.90;;;;;;4956366;29;20184;-81
2022/11/24 09:13:50;;;;;;;9.90;1.48;;;9.50;99.90;;;;;;4957382;29;20702;-83
2022/11/24 09:16:21;;;;;;;9.35;1.30;;;9.50;99.90;;;;;;4957669;29;20253;-84
2022/11/24 09:18:47;;;;;;;18.17;2.60;;;9.50;99.90;;;;;;4957942;28;20591;-81
2022/11/24 09:21:15;;;;;;;11.88;2.40;;;9.60;99.90;;;;;;4956700;29;20170;-86
2022/11/24 09:23:42;;;;;;;11.93;1.77;;;9.70;99.90;;;;;;4956208;29;20269;-81
2022/11/24 09:26:13;;;;;;;10.35;2.00;;;9.80;99.90;;;;;;4957237;29;20175;-80
2022/11/24 09:28:40;;;;;;;9.52;2.65;;;9.70;99.90;;;;;;4957349;28;20182;-83
2022/11/24 09:31:08;;;;;;;12.40;2.40;;;9.70;99.90;;;;;;4957363;29;20173;-83
2022/11/24 09:33:35;;;;;;;5.20;1.70;;;9.80;99.90;;;;;;4956813;29;20222;-83
2022/11/24 09:36:01;;;;;;;14.43;1.63;;;9.90;99.90;;;;;;4956868;29;20205;-83
2022/11/24 09:38:27;;;;;;;5.47;1.70;;;9.90;99.90;;;;;;4957244;29;20227;-81
2022/11/24 09:40:53;;;;;;;6.20;1.48;;;9.90;99.90;;;;;;4957190;28;20202;-83
2022/11/24 09:43:25;;;;;;;12.93;2.03;;;9.90;99.90;;;;;;4956889;29;20193;-80
2022/11/24 09:46:10;;;;;;;10.82;2.67;;;10.00;99.90;;;;;;4956083;28;20182;-85
2022/11/24 09:48:42;;;;;;;9.70;1.70;;;10.10;99.90;;;;;;4955666;28;20174;-85
2022/11/24 09:51:13;;;;;;;14.27;2.95;;;10.20;99.90;;;;;;4957311;28;20320;-82
2022/11/24 09:53:55;;;;;;;7.15;2.50;;;10.20;99.90;;;;;;4957366;29;20206;-81
2022/11/24 09:56:29;;;;;;;5.00;1.92;;;10.20;99.90;;;;;;4956804;29;20185;-81
2022/11/24 09:59:15;;;;;;;11.82;2.00;;;10.40;99.90;;;;;;4956543;28;20288;-81
2022/11/24 10:01:42;;;;;;;11.98;2.85;;;10.40;99.90;;;;;;4956088;29;20159;-81
2022/11/24 10:04:16;;;;;;;6.63;2.05;;;10.50;99.90;;;;;;4956125;29;20182;-81
2022/11/24 10:07:00;;;;;;;12.60;2.28;;;10.50;99.90;;;;;;4954793;28;20170;-81
2022/11/24 10:09:39;;;;;;;5.63;2.17;;;10.40;99.90;;;;;;4955893;28;20198;-82
2022/11/24 10:12:29;;;;;;;12.10;1.90;;;10.50;99.90;;;;;;4955761;29;20628;-86
2022/11/24 10:15:14;;;;;;;17.02;3.17;;;10.60;99.90;;;;;;4956309;29;20166;-82
2022/11/24 10:17:51;;;;;;;9.15;1.98;;;10.50;99.90;;;;;;4956217;29;20175;-81
2022/11/24 10:20:31;;;;;;;11.13;2.05;;;10.70;99.90;;;;;;4956328;28;20182;-81
2022/11/24 10:23:21;;;;;;;13.05;1.52;;;10.80;99.90;;;;;;4955757;29;20245;-81
2022/11/24 10:25:53;;;;;;;10.45;2.45;;;10.70;99.90;;;;;;4955989;29;20210;-80
2022/11/24 10:28:18;;;;;;;21.35;1.85;;;10.90;99.90;;;;;;4956046;29;20175;-84
2022/11/24 10:30:44;;;;;;;10.65;1.90;;;10.80;99.90;;;;;;4956159;28;20659;-80
2022/11/24 10:33:18;;;;;;;17.70;2.35;;;10.90;99.90;;;;;;4956153;29;20203;-83
2022/11/24 10:36:13;;;;;;;12.23;2.08;;;10.80;99.90;;;;;;4956208;29;20208;-83
2022/11/24 10:38:51;;;;;;;20.15;2.25;;;10.90;99.90;;;;;;4955552;28;20175;-81
2022/11/24 10:41:45;;;;;;;14.38;2.60;;;11.00;99.90;;;;;;4954588;29;20588;-81
2022/11/24 10:44:14;;;;;;;13.32;2.50;;;11.10;99.90;;;;;;4955845;29;20222;-80
2022/11/24 10:46:40;;;;;;;11.30;2.95;;;11.00;99.90;;;;;;4956221;29;20174;-80
2022/11/24 10:49:05;;;;;;;14.18;2.00;;;11.10;99.90;;;;;;4956286;28;20193;-81
2022/11/24 10:51:56;;;;;;;12.00;2.45;;;11.10;99.90;;;;;;4958022;29;20213;-82
2022/11/24 10:54:23;;;;;;;10.57;1.58;;;11.10;99.90;;;;;;4956521;29;20187;-81
2022/11/24 10:56:51;;;;;;;6.53;1.77;;;11.20;99.90;;;;;;4955733;28;20178;-83
2022/11/24 10:59:36;;;;;;;15.05;2.45;;;11.10;99.90;;;;;;4955178;28;20225;-83
2022/11/24 11:02:23;;;;;;;8.23;1.83;;;11.30;99.90;;;;;;4955417;28;20545;-84
2022/11/24 11:04:49;;;;;;;8.95;2.50;;;11.30;99.90;;;;;;4955277;29;20579;-83
2022/11/24 11:07:18;;;;;;;17.92;1.92;;;11.20;99.90;;;;;;4955485;29;20171;-84
2022/11/24 11:09:44;;;;;;;5.68;1.90;;;11.30;99.90;;;;;;4954241;28;20202;-85
2022/11/24 11:12:17;;;;;;;14.52;1.92;;;11.30;99.90;;;;;;4955650;29;20162;-82
2022/11/24 11:14:43;;;;;;;12.73;2.58;;;11.30;99.90;;;;;;4956022;29;20166;-83
2022/11/24 11:17:32;;;;;;;4.13;2.35;;;11.30;99.90;;;;;;4956243;29;20664;-83
2022/11/24 11:20:02;;;;;;;7.60;2.17;;;11.40;99.90;;;;;;4955737;28;20198;-83
2022/11/24 11:22:30;;;;;;;11.27;2.63;;;11.40;99.90;;;;;;4955341;29;20194;-82
2022/11/24 11:25:13;;;;;;;11.63;2.15;;;11.50;99.90;;;;;;4954127;29;20229;-81
2022/11/24 11:27:40;;;;;;;10.80;1.85;;;11.50;99.90;;;;;;4955184;29;20179;-81
2022/11/24 11:30:29;;;;;;;11.60;2.33;;;11.50;99.90;;;;;;4955299;28;20236;-85
2022/11/24 11:32:57;;;;;;;9.55;2.45;;;11.40;99.90;;;;;;4954060;29;20226;-84
2022/11/24 11:35:27;;;;;;;12.93;2.40;;;11.50;99.90;;;;;;4955370;29;20294;-83
2022/11/24 11:38:00;;;;;;;19.95;3.70;;;11.60;99.90;;;;;;4953927;29;20245;-83
2022/11/24 11:40:28;;;;;;;5.57;1.92;;;11.60;99.90;;;;;;4955495;28;21001;-83
2022/11/24 11:43:01;;;;;;;24.48;2.67;;;11.50;99.90;;;;;;4953651;29;20257;-82
2022/11/24 11:45:34;;;;;;;12.75;1.98;;;11.60;99.90;;;;;;4955053;29;20170;-82
2022/11/24 11:47:59;;;;;;;11.88;2.38;;;11.60;99.90;;;;;;4954713;29;20186;-82
2022/11/24 11:50:46;;;;;;;10.55;2.28;;;11.70;99.90;;;;;;4954600;28;20224;-82
2022/11/24 11:53:44;;;;;;;7.10;1.60;;;11.80;99.90;;;;;;4954465;29;20687;-83
2022/11/24 11:56:31;;;;;;;13.65;2.67;;;11.70;99.90;;;;;;4953716;29;20202;-83
2022/11/24 11:59:22;;;;;;;8.00;1.80;;;11.70;99.90;;;;;;4953422;28;20237;-82
2022/11/24 12:01:50;;;;;;;8.25;1.73;;;11.70;99.90;;;;;;4953789;29;20256;-82
2022/11/24 12:04:46;;;;;;;11.77;2.20;;;11.80;99.90;;;;;;4954643;29;20636;-80
2022/11/24 12:07:29;;;;;;;15.57;2.42;;;11.90;99.90;;;;;;4955057;29;20711;-81
2022/11/24 12:10:09;;;;;;;15.00;2.20;;;11.90;99.90;;;;;;4955187;28;20187;-83
2022/11/24 12:13:02;;;;;;;17.42;2.53;;;11.90;99.90;;;;;;4954746;28;20213;-82
2022/11/24 12:15:50;;;;;;;18.05;2.28;;;11.80;99.90;;;;;;4958960;29;20177;-83
2022/11/24 12:18:27;;;;;;;14.32;2.25;;;11.70;99.90;;;;;;4957489;29;20538;-83
2022/11/24 12:21:18;;;;;;;12.63;2.65;;;11.80;99.90;;;;;;4957667;28;20562;-82
2022/11/24 12:23:49;;;;;;;10.80;2.47;;;11.80;99.90;;;;;;4958562;29;20254;-83
2022/11/24 12:26:27;;;;;;;15.45;2.35;;;12.00;99.90;;;;;;4958630;29;20163;-82
2022/11/24 12:28:55;;;;;;;10.70;2.30;;;11.90;99.90;;;;;;4958387;28;20170;-80
2022/11/24 12:31:40;;;;;;;13.88;2.63;;;11.80;99.90;;;;;;4961249;28;20173;-82
2022/11/24 12:34:16;;;;;;;8.88;2.20;;;11.90;99.90;;;;;;4960388;28;20220;-83
2022/11/24 12:37:13;;;;;;;14.95;2.78;;;12.10;99.90;;;;;;4977530;28;20642;-83
2022/11/24 12:39:55;;;;;;;17.45;1.98;;;12.20;99.90;;;;;;4961090;28;20292;-83
2022/11/24 12:42:21;;;;;;;11.48;2.35;;;12.30;99.90;;;;;;4978153;28;20361;-84
2022/11/24 12:44:55;;;;;;;11.43;1.95;;;12.10;99.90;;;;;;4960554;28;20209;-82
2022/11/24 12:47:47;;;;;;;10.57;2.15;;;12.00;99.90;;;;;;4976823;28;20226;-83
2022/11/24 12:50:19;;;;;;;12.60;2.50;;;11.90;99.90;;;;;;4977284;28;20191;-82
2022/11/24 12:53:13;;;;;;;8.05;2.00;;;12.10;99.90;;;;;;4960079;28;20268;-84
2022/11/24 12:55:40;;;;;;;9.57;1.58;;;11.90;99.90;;;;;;4954150;28;20244;-83
2022/11/24 12:58:36;;;;;;;10.48;2.40;;;12.00;99.90;;;;;;4959399;28;20193;-82